Time;durP1;ratioP1;P1;durP2;ratioP2;P2;SDS_P1;SDS_P2;PMS_P1;PMS_P2;Temp;Humidity;BMP_temperature;BMP_pressure;BME280_temperature;BME280_humidity;BME280_pressure;Samples;Min_cycle;Max_cycle;Signal;HPM_P1;HPM_P2
2021/08/24 00:00:14;;;;;;;2.47;1.40;;;25.00;54.30;;;;;;5042839;28;20029;-61
2021/08/24 00:02:40;;;;;;;2.28;1.30;;;24.90;54.30;;;;;;5044741;28;20033;-58
2021/08/24 00:05:08;;;;;;;1.70;1.30;;;24.90;54.30;;;;;;5050748;28;20044;-60
2021/08/24 00:07:34;;;;;;;2.08;1.15;;;24.90;54.30;;;;;;5044161;28;20033;-61
2021/08/24 00:09:59;;;;;;;2.08;1.30;;;24.90;54.30;;;;;;5044627;28;20022;-60
2021/08/24 00:12:25;;;;;;;1.60;1.00;;;24.90;54.30;;;;;;5042194;28;20076;-62
2021/08/24 00:14:51;;;;;;;2.30;1.30;;;24.90;54.30;;;;;;5037428;28;20029;-60
2021/08/24 00:17:16;;;;;;;1.90;1.20;;;24.90;54.30;;;;;;5044697;28;20109;-61
2021/08/24 00:19:42;;;;;;;1.88;1.20;;;24.90;54.30;;;;;;5040531;28;20443;-60
2021/08/24 00:22:08;;;;;;;1.83;1.20;;;24.80;54.30;;;;;;5042965;28;20037;-61
2021/08/24 00:24:33;;;;;;;1.85;1.17;;;24.90;54.30;;;;;;5039601;28;20053;-61
2021/08/24 00:26:59;;;;;;;1.90;1.20;;;24.80;54.30;;;;;;5042743;28;20104;-59
2021/08/24 00:29:24;;;;;;;2.38;1.25;;;24.80;54.30;;;;;;5043753;28;20047;-59
2021/08/24 00:31:50;;;;;;;1.92;1.30;;;24.80;54.30;;;;;;5045202;28;20029;-61
2021/08/24 00:34:15;;;;;;;1.75;1.02;;;24.80;54.30;;;;;;5043625;28;20037;-61
2021/08/24 00:36:41;;;;;;;2.03;1.27;;;24.80;54.30;;;;;;5044748;28;20028;-60
2021/08/24 00:39:07;;;;;;;3.22;1.83;;;24.80;54.30;;;;;;5048855;28;20024;-61
2021/08/24 00:41:35;;;;;;;2.05;1.20;;;24.80;54.30;;;;;;5043624;28;20339;-60
2021/08/24 00:44:01;;;;;;;1.90;1.30;;;24.80;54.30;;;;;;5046556;28;20066;-58
2021/08/24 00:46:34;;;;;;;2.15;1.20;;;24.80;54.30;;;;;;5047304;28;20399;-60
2021/08/24 00:49:04;;;;;;;1.35;0.93;;;24.80;54.40;;;;;;5037641;28;20024;-61
2021/08/24 00:51:33;;;;;;;2.42;1.23;;;24.80;54.40;;;;;;5034754;28;20602;-61
2021/08/24 00:53:59;;;;;;;1.80;1.20;;;24.80;54.40;;;;;;5045394;28;20078;-60
2021/08/24 00:56:25;;;;;;;3.00;1.20;;;24.80;54.90;;;;;;5035032;28;20033;-60
2021/08/24 00:58:51;;;;;;;2.40;1.50;;;24.80;54.40;;;;;;5043697;28;20029;-61
2021/08/24 01:01:16;;;;;;;2.17;1.10;;;24.80;54.40;;;;;;5040803;28;20056;-62
2021/08/24 01:03:46;;;;;;;2.13;1.30;;;24.80;54.40;;;;;;5028523;28;20033;-61
2021/08/24 01:06:39;;;;;;;1.98;1.30;;;24.80;54.40;;;;;;5034534;28;20492;-61
2021/08/24 01:09:15;;;;;;;2.10;1.10;;;24.80;54.40;;;;;;5051217;28;20053;-61
2021/08/24 01:11:53;;;;;;;1.30;1.10;;;24.70;54.40;;;;;;5039822;28;20481;-60
2021/08/24 01:14:36;;;;;;;1.90;1.20;;;24.70;54.40;;;;;;5029888;28;20021;-61
2021/08/24 01:17:18;;;;;;;1.77;1.10;;;24.70;54.50;;;;;;5035030;28;20050;-61
2021/08/24 01:20:14;;;;;;;1.50;1.00;;;24.70;54.40;;;;;;5036021;28;20421;-61
2021/08/24 01:22:59;;;;;;;3.17;1.33;;;24.70;54.40;;;;;;5043738;28;20032;-59
2021/08/24 01:26:09;;;;;;;1.65;1.08;;;24.70;54.40;;;;;;5035597;28;20656;-60
2021/08/24 01:29:14;;;;;;;1.40;1.00;;;24.70;54.50;;;;;;5007785;28;20049;-63
2021/08/24 01:31:57;;;;;;;1.45;1.00;;;24.70;54.50;;;;;;5009163;28;20104;-63
2021/08/24 01:34:46;;;;;;;1.80;1.10;;;24.60;54.40;;;;;;5045051;28;20033;-63
2021/08/24 01:37:19;;;;;;;1.80;1.00;;;24.70;54.50;;;;;;5035597;28;20029;-60
2021/08/24 01:39:58;;;;;;;2.10;1.08;;;24.60;54.40;;;;;;5043905;28;20658;-61
2021/08/24 01:42:27;;;;;;;1.80;1.10;;;24.60;54.50;;;;;;5039888;28;20036;-58
2021/08/24 01:44:52;;;;;;;1.88;1.10;;;24.60;54.50;;;;;;5042925;28;20091;-61
2021/08/24 01:47:49;;;;;;;1.42;1.00;;;24.60;54.50;;;;;;5038515;28;20374;-61
2021/08/24 01:50:51;;;;;;;1.38;0.95;;;24.60;54.50;;;;;;5028983;28;20402;-60
2021/08/24 01:53:23;;;;;;;1.77;1.13;;;24.60;54.50;;;;;;5044916;28;20025;-59
2021/08/24 01:55:58;;;;;;;1.33;0.90;;;24.60;54.50;;;;;;5048023;28;20100;-62
2021/08/24 01:58:32;;;;;;;1.70;1.10;;;24.60;54.50;;;;;;5038570;28;20029;-62
2021/08/24 02:01:01;;;;;;;3.35;1.30;;;24.60;54.50;;;;;;5044356;28;20030;-62
2021/08/24 02:03:36;;;;;;;1.60;1.00;;;24.60;54.50;;;;;;5044205;28;20036;-62
2021/08/24 02:06:12;;;;;;;1.40;0.98;;;24.60;54.60;;;;;;5036454;28;20067;-63
2021/08/24 02:08:42;;;;;;;1.45;0.90;;;24.60;54.60;;;;;;5039417;28;20100;-61
2021/08/24 02:11:07;;;;;;;2.45;1.00;;;24.50;54.50;;;;;;5032453;28;20032;-61
2021/08/24 02:13:41;;;;;;;1.52;1.10;;;24.60;54.60;;;;;;5038225;28;20037;-62
2021/08/24 02:16:10;;;;;;;1.60;1.10;;;24.60;54.60;;;;;;5025700;28;20084;-61
2021/08/24 02:18:38;;;;;;;1.60;1.00;;;24.50;54.50;;;;;;5039866;28;20064;-61
2021/08/24 02:21:16;;;;;;;1.42;1.00;;;24.50;54.50;;;;;;5062214;28;20437;-62
2021/08/24 02:23:45;;;;;;;1.73;0.93;;;24.50;54.50;;;;;;5039508;28;20545;-62
2021/08/24 02:26:13;;;;;;;1.48;0.90;;;24.50;54.50;;;;;;5026606;28;20043;-61
2021/08/24 02:28:43;;;;;;;1.40;1.10;;;24.50;54.50;;;;;;5041829;28;20041;-61
2021/08/24 02:31:24;;;;;;;1.77;1.00;;;24.50;54.60;;;;;;5035495;28;20056;-62
2021/08/24 02:34:11;;;;;;;1.48;1.10;;;24.50;54.60;;;;;;5034198;28;20060;-61
2021/08/24 02:36:40;;;;;;;1.48;1.00;;;24.50;54.60;;;;;;5045450;28;20516;-60
2021/08/24 02:39:13;;;;;;;1.35;0.88;;;24.50;54.60;;;;;;5031195;28;20059;-60
2021/08/24 02:42:19;;;;;;;1.75;0.95;;;24.50;54.60;;;;;;5045019;28;20045;-61
2021/08/24 02:44:52;;;;;;;1.23;0.95;;;24.50;54.60;;;;;;5040399;28;20045;-60
2021/08/24 02:47:19;;;;;;;1.90;1.10;;;24.50;54.60;;;;;;5045598;28;20346;-62
2021/08/24 02:49:45;;;;;;;1.38;1.10;;;24.40;54.50;;;;;;5039720;28;20025;-60
2021/08/24 02:52:12;;;;;;;1.98;1.17;;;24.40;54.50;;;;;;5047131;28;20372;-62
2021/08/24 02:54:44;;;;;;;1.42;0.90;;;24.40;54.50;;;;;;5044576;28;20120;-62
2021/08/24 02:57:10;;;;;;;1.48;1.00;;;24.40;55.00;;;;;;5045723;28;20115;-62
2021/08/24 02:59:37;;;;;;;1.33;0.90;;;24.40;54.50;;;;;;5042934;28;20037;-60
2021/08/24 03:02:05;;;;;;;1.73;1.10;;;24.40;54.60;;;;;;5046505;28;20259;-62
2021/08/24 03:04:31;;;;;;;1.40;1.00;;;24.40;54.50;;;;;;5039274;28;20122;-59
2021/08/24 03:07:01;;;;;;;1.52;1.00;;;24.40;54.60;;;;;;5045404;28;20025;-58
2021/08/24 03:09:30;;;;;;;1.90;1.10;;;24.40;54.60;;;;;;5042017;28;20404;-61
2021/08/24 03:12:04;;;;;;;1.70;1.10;;;24.40;54.60;;;;;;5040060;28;20536;-62
2021/08/24 03:14:53;;;;;;;1.30;1.10;;;24.40;54.60;;;;;;5034973;28;20137;-62
2021/08/24 03:17:42;;;;;;;1.17;0.90;;;24.40;55.20;;;;;;5045541;28;20116;-61
2021/08/24 03:20:09;;;;;;;1.15;0.95;;;24.30;54.60;;;;;;5045933;28;20036;-61
2021/08/24 03:22:37;;;;;;;1.33;0.90;;;24.30;54.60;;;;;;5045493;28;20477;-59
2021/08/24 03:25:04;;;;;;;1.10;0.82;;;24.40;54.60;;;;;;5043308;28;20103;-61
2021/08/24 03:27:36;;;;;;;1.00;0.90;;;24.40;54.70;;;;;;5046403;28;20498;-63
2021/08/24 03:30:11;;;;;;;1.33;1.00;;;24.30;54.60;;;;;;5043815;28;20027;-62
2021/08/24 03:32:36;;;;;;;2.17;1.00;;;24.30;54.60;;;;;;5044063;28;20040;-61
2021/08/24 03:35:03;;;;;;;1.38;0.90;;;24.30;54.60;;;;;;5045998;28;20120;-61
2021/08/24 03:37:29;;;;;;;1.60;1.13;;;24.30;54.60;;;;;;5043388;28;20060;-62
2021/08/24 03:39:54;;;;;;;1.10;0.95;;;24.30;54.60;;;;;;5044147;28;20037;-62
2021/08/24 03:42:20;;;;;;;1.42;1.08;;;24.30;54.60;;;;;;5037736;28;20388;-62
2021/08/24 03:44:46;;;;;;;1.25;0.80;;;24.30;54.70;;;;;;5043550;28;20103;-61
2021/08/24 03:47:13;;;;;;;2.30;1.15;;;24.30;54.60;;;;;;5046420;28;20376;-60
2021/08/24 03:49:39;;;;;;;1.40;1.00;;;24.30;54.70;;;;;;5046342;28;20021;-61
2021/08/24 03:52:05;;;;;;;1.25;0.90;;;24.30;54.70;;;;;;5030208;28;20095;-62
2021/08/24 03:54:31;;;;;;;1.35;1.00;;;24.30;54.70;;;;;;5040674;28;20405;-60
2021/08/24 03:56:57;;;;;;;1.45;1.00;;;24.30;54.70;;;;;;5038683;28;20025;-62
2021/08/24 03:59:22;;;;;;;1.50;1.00;;;24.30;54.70;;;;;;5048976;28;20797;-61
2021/08/24 04:01:48;;;;;;;1.38;0.95;;;24.30;54.70;;;;;;5041604;28;20029;-62
2021/08/24 04:04:14;;;;;;;1.42;0.90;;;24.30;54.70;;;;;;5045566;28;20024;-60
2021/08/24 04:06:39;;;;;;;1.05;0.88;;;24.30;54.70;;;;;;5040581;28;20295;-62
2021/08/24 04:09:05;;;;;;;1.40;1.00;;;24.30;54.70;;;;;;5043472;28;20036;-60
2021/08/24 04:11:31;;;;;;;1.17;0.90;;;24.30;54.70;;;;;;5038472;28;20040;-62
2021/08/24 04:13:56;;;;;;;2.63;1.13;;;24.30;54.70;;;;;;5046377;28;20123;-61
2021/08/24 04:16:22;;;;;;;1.15;0.90;;;24.30;54.70;;;;;;5046566;28;20131;-62
2021/08/24 04:18:48;;;;;;;1.02;0.80;;;24.30;54.70;;;;;;5055885;28;20044;-59
2021/08/24 04:21:17;;;;;;;1.50;0.93;;;24.20;54.70;;;;;;5044323;28;20037;-59
2021/08/24 04:23:44;;;;;;;2.15;0.90;;;24.30;54.70;;;;;;5039025;28;20033;-62
2021/08/24 04:26:10;;;;;;;1.27;0.95;;;24.20;54.70;;;;;;5039946;28;20060;-61
2021/08/24 04:28:36;;;;;;;1.20;0.85;;;24.20;54.70;;;;;;5043074;28;20028;-61
2021/08/24 04:31:05;;;;;;;1.58;0.90;;;24.20;54.70;;;;;;5041466;28;20017;-61
2021/08/24 04:33:31;;;;;;;1.98;1.27;;;24.20;54.80;;;;;;5057926;28;20040;-61
2021/08/24 04:35:57;;;;;;;1.13;0.90;;;24.20;55.30;;;;;;5043699;28;20033;-61
2021/08/24 04:38:23;;;;;;;0.95;0.70;;;24.20;54.70;;;;;;5044843;28;20035;-58
2021/08/24 04:40:49;;;;;;;1.10;0.90;;;24.20;54.80;;;;;;5045816;28;20116;-62
2021/08/24 04:43:15;;;;;;;1.10;1.00;;;24.20;54.80;;;;;;5038597;28;20033;-62
2021/08/24 04:45:41;;;;;;;1.42;0.80;;;24.20;54.70;;;;;;5045185;28;20116;-57
2021/08/24 04:48:07;;;;;;;1.13;0.80;;;24.20;54.80;;;;;;5044163;28;20560;-59
2021/08/24 04:50:33;;;;;;;1.33;0.90;;;24.20;54.80;;;;;;5041424;28;20430;-62
2021/08/24 04:52:59;;;;;;;1.08;0.82;;;24.10;54.70;;;;;;5033263;28;20355;-62
2021/08/24 04:55:24;;;;;;;1.50;0.90;;;24.20;54.80;;;;;;5040216;28;20084;-62
2021/08/24 04:57:50;;;;;;;1.00;0.90;;;24.10;54.70;;;;;;5040203;28;20116;-59
2021/08/24 05:00:16;;;;;;;0.98;0.80;;;24.10;54.80;;;;;;5046206;28;20044;-61
2021/08/24 05:02:42;;;;;;;1.83;0.82;;;24.20;54.80;;;;;;5037963;28;20051;-62
2021/08/24 05:05:08;;;;;;;0.85;0.70;;;24.20;54.80;;;;;;5028269;28;20021;-62
2021/08/24 05:07:33;;;;;;;1.13;0.80;;;24.10;54.80;;;;;;5040318;28;20041;-62
2021/08/24 05:10:01;;;;;;;1.25;0.88;;;24.10;54.80;;;;;;5044735;28;20035;-59
2021/08/24 05:12:27;;;;;;;1.27;0.80;;;24.10;54.80;;;;;;5041585;28;20052;-61
2021/08/24 05:14:52;;;;;;;1.17;0.93;;;24.10;54.80;;;;;;5034986;28;20458;-61
2021/08/24 05:17:18;;;;;;;1.17;0.82;;;24.10;54.80;;;;;;5035949;28;20032;-61
2021/08/24 05:19:44;;;;;;;1.20;0.90;;;24.10;54.80;;;;;;5044916;28;20021;-61
2021/08/24 05:22:09;;;;;;;1.67;1.05;;;24.10;54.80;;;;;;5040779;28;20021;-62
2021/08/24 05:24:35;;;;;;;1.30;0.80;;;24.10;54.80;;;;;;5041079;28;20285;-61
2021/08/24 05:27:02;;;;;;;1.40;0.90;;;24.10;54.80;;;;;;5040612;28;20028;-60
2021/08/24 05:29:28;;;;;;;1.35;0.82;;;24.10;54.80;;;;;;5039441;28;20037;-60
2021/08/24 05:31:54;;;;;;;1.30;0.90;;;24.10;54.90;;;;;;5038457;28;20096;-61
2021/08/24 05:34:19;;;;;;;1.23;0.80;;;24.10;54.90;;;;;;5039778;28;20044;-62
2021/08/24 05:36:45;;;;;;;0.77;0.70;;;24.10;54.90;;;;;;5042098;28;20032;-62
2021/08/24 05:39:11;;;;;;;1.10;0.90;;;24.10;54.80;;;;;;5041984;28;20119;-61
2021/08/24 05:41:38;;;;;;;0.80;0.70;;;24.10;54.80;;;;;;5036877;28;20034;-62
2021/08/24 05:44:04;;;;;;;1.38;0.90;;;24.10;54.80;;;;;;5035633;28;20441;-60
2021/08/24 05:46:30;;;;;;;1.67;0.90;;;24.10;54.80;;;;;;5041302;28;20043;-62
2021/08/24 05:48:55;;;;;;;0.98;0.80;;;24.10;54.80;;;;;;5044523;28;20317;-62
2021/08/24 05:51:22;;;;;;;1.10;0.90;;;24.10;54.80;;;;;;5051867;28;20485;-62
2021/08/24 05:53:48;;;;;;;1.38;0.90;;;24.10;54.80;;;;;;5042007;28;20037;-62
2021/08/24 05:56:18;;;;;;;1.10;0.90;;;24.00;54.70;;;;;;5047413;28;20025;-61
2021/08/24 05:58:45;;;;;;;1.38;1.05;;;24.10;54.80;;;;;;5042187;28;20033;-61
2021/08/24 06:01:27;;;;;;;1.35;0.80;;;24.00;54.70;;;;;;5044378;28;20121;-61
2021/08/24 06:03:53;;;;;;;1.58;1.00;;;24.00;54.70;;;;;;5023870;28;20049;-61
2021/08/24 06:06:45;;;;;;;1.27;0.90;;;24.00;54.70;;;;;;5036148;28;20536;-61
2021/08/24 06:09:12;;;;;;;1.70;0.93;;;24.00;54.70;;;;;;5030440;28;20390;-60
2021/08/24 06:11:47;;;;;;;1.20;0.90;;;24.00;54.70;;;;;;5028393;28;20057;-62
2021/08/24 06:14:13;;;;;;;1.58;0.90;;;24.00;54.60;;;;;;5044565;28;20083;-62
2021/08/24 06:16:39;;;;;;;1.60;0.93;;;24.00;54.60;;;;;;5046210;28;20048;-61
2021/08/24 06:19:05;;;;;;;1.35;0.88;;;24.00;54.60;;;;;;5031349;28;20061;-60
2021/08/24 06:21:31;;;;;;;1.38;1.00;;;24.00;54.60;;;;;;5047988;28;20117;-61
2021/08/24 06:23:57;;;;;;;1.70;1.00;;;24.00;54.60;;;;;;5048590;28;20100;-61
2021/08/24 06:26:23;;;;;;;1.25;0.85;;;24.00;54.60;;;;;;5045129;28;20153;-61
2021/08/24 06:28:49;;;;;;;1.55;1.00;;;24.00;54.60;;;;;;5048461;28;20025;-61
2021/08/24 06:31:18;;;;;;;1.70;1.00;;;24.00;54.60;;;;;;5048090;28;20033;-61
2021/08/24 06:33:44;;;;;;;2.15;0.95;;;24.00;54.60;;;;;;5048247;28;20326;-60
2021/08/24 06:36:11;;;;;;;1.50;1.00;;;24.00;54.60;;;;;;5048243;28;20078;-61
2021/08/24 06:38:37;;;;;;;1.58;0.90;;;24.00;54.60;;;;;;5048971;28;20071;-61
2021/08/24 06:41:03;;;;;;;1.77;1.05;;;24.00;54.60;;;;;;5047790;28;20065;-60
2021/08/24 06:43:29;;;;;;;1.13;0.80;;;24.00;54.60;;;;;;5039777;28;20064;-61
2021/08/24 06:45:55;;;;;;;1.02;0.80;;;24.00;55.10;;;;;;5035426;28;20033;-61
2021/08/24 06:48:21;;;;;;;1.50;1.00;;;23.90;54.50;;;;;;5051740;28;20045;-60
2021/08/24 06:50:47;;;;;;;1.83;1.17;;;23.90;54.50;;;;;;5048083;28;20469;-61
2021/08/24 06:53:13;;;;;;;1.23;0.90;;;24.00;54.60;;;;;;5049987;28;20104;-61
2021/08/24 06:55:39;;;;;;;1.30;0.90;;;23.90;54.50;;;;;;5036506;28;20017;-61
2021/08/24 06:58:07;;;;;;;1.08;0.90;;;23.90;54.50;;;;;;5041509;28;20021;-61
2021/08/24 07:00:33;;;;;;;1.10;0.80;;;23.90;54.50;;;;;;5042100;28;20036;-60
2021/08/24 07:03:00;;;;;;;1.20;1.00;;;23.90;54.50;;;;;;5039597;28;20104;-62
2021/08/24 07:05:28;;;;;;;1.15;0.90;;;23.90;54.50;;;;;;5029801;28;20337;-61
2021/08/24 07:07:54;;;;;;;1.15;0.90;;;23.90;54.50;;;;;;5044540;28;20477;-61
2021/08/24 07:10:22;;;;;;;1.17;0.90;;;23.90;54.50;;;;;;5043236;28;20041;-59
2021/08/24 07:12:47;;;;;;;1.33;1.00;;;23.90;54.50;;;;;;5046031;28;20041;-60
2021/08/24 07:15:16;;;;;;;1.23;0.88;;;23.90;54.50;;;;;;5043596;28;20499;-59
2021/08/24 07:17:42;;;;;;;1.73;1.00;;;23.90;54.50;;;;;;5043706;28;20274;-59
2021/08/24 07:20:11;;;;;;;1.38;0.90;;;23.90;54.50;;;;;;5045378;28;20294;-61
2021/08/24 07:22:37;;;;;;;1.40;0.90;;;23.90;54.50;;;;;;5047726;28;20033;-60
2021/08/24 07:25:08;;;;;;;1.65;1.00;;;23.90;54.50;;;;;;5049116;28;20043;-61
2021/08/24 07:27:33;;;;;;;1.33;1.00;;;23.90;54.50;;;;;;5030430;28;20033;-61
2021/08/24 07:29:59;;;;;;;1.73;1.00;;;23.90;54.40;;;;;;5039777;28;20629;-59
2021/08/24 07:32:25;;;;;;;1.38;1.00;;;23.90;54.40;;;;;;5041552;28;20025;-60
2021/08/24 07:34:51;;;;;;;1.38;0.90;;;23.90;54.40;;;;;;5044380;28;20104;-60
2021/08/24 07:37:16;;;;;;;1.50;1.10;;;23.90;54.40;;;;;;5038601;28;20086;-60
2021/08/24 07:39:43;;;;;;;1.45;0.90;;;23.90;54.40;;;;;;5035344;28;20029;-60
2021/08/24 07:42:09;;;;;;;1.50;1.00;;;23.90;54.40;;;;;;5042489;28;20128;-61
2021/08/24 07:44:34;;;;;;;0.98;0.80;;;23.90;54.40;;;;;;5037622;28;20108;-60
2021/08/24 07:47:01;;;;;;;1.45;0.90;;;23.90;54.40;;;;;;5028996;28;20052;-61
2021/08/24 07:49:27;;;;;;;1.20;0.90;;;23.90;54.40;;;;;;5044103;28;20049;-61
2021/08/24 07:51:56;;;;;;;1.30;0.98;;;23.90;54.40;;;;;;5041614;28;20049;-59
2021/08/24 07:54:22;;;;;;;1.30;0.90;;;23.90;54.40;;;;;;5040913;28;20504;-62
2021/08/24 07:56:48;;;;;;;1.98;1.23;;;23.90;54.30;;;;;;5045431;28;20078;-62
2021/08/24 07:59:14;;;;;;;1.40;0.98;;;23.90;54.40;;;;;;5047145;28;20028;-60
2021/08/24 08:01:39;;;;;;;1.33;1.00;;;23.90;54.30;;;;;;5047647;28;20048;-61
2021/08/24 08:04:05;;;;;;;0.90;0.80;;;23.90;54.30;;;;;;5043834;28;20040;-60
2021/08/24 08:06:30;;;;;;;1.60;1.10;;;23.90;54.30;;;;;;5043431;28;20442;-61
2021/08/24 08:08:56;;;;;;;1.25;0.90;;;23.90;54.30;;;;;;5045468;28;20061;-55
2021/08/24 08:11:22;;;;;;;1.33;1.10;;;23.90;54.30;;;;;;5028629;28;20183;-61
2021/08/24 08:13:47;;;;;;;1.50;1.00;;;23.80;54.30;;;;;;5043107;28;20067;-62
2021/08/24 08:16:13;;;;;;;1.33;0.90;;;23.90;54.30;;;;;;5046620;28;20102;-62
2021/08/24 08:18:39;;;;;;;1.10;0.93;;;23.90;54.30;;;;;;5044431;28;20780;-61
2021/08/24 08:21:04;;;;;;;1.40;0.90;;;23.90;54.40;;;;;;5045508;28;20112;-60
2021/08/24 08:23:30;;;;;;;1.42;1.00;;;23.80;54.30;;;;;;5057813;28;20035;-60
2021/08/24 08:25:56;;;;;;;1.38;0.93;;;23.80;54.30;;;;;;5043721;28;20055;-61
2021/08/24 08:28:21;;;;;;;1.30;0.98;;;23.90;54.40;;;;;;5044409;28;20032;-60
2021/08/24 08:30:47;;;;;;;1.13;1.00;;;23.80;54.30;;;;;;5040425;28;20346;-58
2021/08/24 08:33:13;;;;;;;1.75;1.10;;;23.80;54.70;;;;;;5033606;28;20053;-61
2021/08/24 08:35:40;;;;;;;1.58;1.00;;;23.90;54.30;;;;;;5043392;28;20075;-60
2021/08/24 08:38:06;;;;;;;1.52;1.00;;;23.80;54.30;;;;;;5038915;28;20120;-60
2021/08/24 08:40:47;;;;;;;1.92;1.20;;;23.80;54.30;;;;;;5045901;28;20521;-60
2021/08/24 08:43:27;;;;;;;1.20;0.90;;;23.80;54.20;;;;;;5040145;28;20038;-62
2021/08/24 08:45:57;;;;;;;1.52;0.95;;;23.90;54.20;;;;;;5027312;28;20439;-61
2021/08/24 08:48:32;;;;;;;1.38;0.95;;;23.80;54.20;;;;;;5038610;28;20029;-60
2021/08/24 08:51:06;;;;;;;1.48;1.02;;;23.80;54.20;;;;;;5049049;28;20025;-60
2021/08/24 08:53:42;;;;;;;1.67;1.00;;;23.80;54.20;;;;;;5049661;28;20025;-61
2021/08/24 08:56:23;;;;;;;1.70;1.00;;;23.80;54.20;;;;;;5028855;28;20478;-61
2021/08/24 08:58:52;;;;;;;1.63;1.10;;;23.80;54.20;;;;;;5041062;28;20033;-61
2021/08/24 09:01:50;;;;;;;1.40;1.00;;;23.80;54.20;;;;;;5048905;28;20028;-61
2021/08/24 09:04:29;;;;;;;2.05;1.15;;;23.90;54.30;;;;;;5055728;28;20472;-61
2021/08/24 09:06:57;;;;;;;1.52;1.20;;;23.80;54.20;;;;;;5040136;28;20904;-60
2021/08/24 09:09:25;;;;;;;1.47;1.10;;;23.80;54.20;;;;;;5037539;28;20377;-60
2021/08/24 09:11:51;;;;;;;1.58;1.00;;;23.80;54.20;;;;;;5037754;28;20824;-61
2021/08/24 09:14:28;;;;;;;1.60;1.00;;;23.80;54.20;;;;;;5043969;28;20089;-61
2021/08/24 09:17:03;;;;;;;1.90;1.08;;;23.80;54.20;;;;;;5045105;28;20405;-62
2021/08/24 09:19:53;;;;;;;1.80;1.10;;;23.80;54.20;;;;;;5038324;28;22232;-59
2021/08/24 09:22:19;;;;;;;1.60;1.00;;;23.80;54.20;;;;;;5031136;28;20029;-61
2021/08/24 09:24:47;;;;;;;1.60;1.00;;;23.80;54.70;;;;;;5038070;28;20088;-61
2021/08/24 09:27:49;;;;;;;1.35;1.05;;;23.80;54.20;;;;;;5043618;28;20448;-59
2021/08/24 09:30:16;;;;;;;1.70;1.00;;;23.80;54.20;;;;;;5043683;28;20036;-58
2021/08/24 09:32:42;;;;;;;1.80;1.08;;;23.80;54.20;;;;;;5046359;28;20276;-61
2021/08/24 09:35:34;;;;;;;1.65;1.08;;;23.80;54.20;;;;;;5041997;28;20057;-61
2021/08/24 09:38:14;;;;;;;1.90;1.10;;;23.80;54.20;;;;;;5046071;28;20033;-60
2021/08/24 09:40:49;;;;;;;1.38;1.00;;;23.80;54.20;;;;;;5045639;28;20033;-61
2021/08/24 09:43:37;;;;;;;1.52;1.10;;;23.80;54.20;;;;;;5046625;28;20083;-60
2021/08/24 09:46:17;;;;;;;1.52;0.85;;;23.80;54.20;;;;;;5046773;28;20052;-62
2021/08/24 09:49:07;;;;;;;1.70;1.20;;;23.80;54.20;;;;;;5044661;28;20054;-60
2021/08/24 09:51:46;;;;;;;1.83;0.90;;;23.80;54.20;;;;;;5053224;28;20020;-61
2021/08/24 09:54:27;;;;;;;;;;;23.80;54.20;;;;;;5054087;28;20026;-60
2021/08/24 09:57:00;;;;;;;1.33;1.00;;;23.70;54.20;;;;;;5044282;28;19966;-60
2021/08/24 09:59:42;;;;;;;1.35;1.00;;;23.80;54.20;;;;;;5044606;28;20025;-60
2021/08/24 10:02:27;;;;;;;1.30;1.00;;;23.80;54.20;;;;;;5039695;28;20056;-60
2021/08/24 10:04:54;;;;;;;1.35;0.90;;;23.80;54.20;;;;;;5042179;28;20051;-60
2021/08/24 10:07:38;;;;;;;1.17;0.90;;;23.80;54.20;;;;;;5046278;28;20439;-60
2021/08/24 10:10:16;;;;;;;1.60;1.10;;;23.80;54.30;;;;;;5043635;28;20044;-60
2021/08/24 10:12:42;;;;;;;1.83;0.93;;;23.80;54.20;;;;;;5031838;28;20453;-61
2021/08/24 10:15:26;;;;;;;1.42;1.00;;;23.80;54.30;;;;;;5042714;28;20080;-59
2021/08/24 10:18:03;;;;;;;1.50;1.10;;;23.80;54.20;;;;;;5036631;28;20102;-60
2021/08/24 10:20:33;;;;;;;1.33;0.95;;;23.80;54.20;;;;;;5043388;28;20064;-61
2021/08/24 10:23:00;;;;;;;1.25;0.98;;;23.80;54.20;;;;;;5046610;28;20044;-59
2021/08/24 10:25:34;;;;;;;1.75;1.10;;;23.80;54.20;;;;;;5042773;28;20039;-59
2021/08/24 10:28:07;;;;;;;1.65;1.00;;;23.80;54.20;;;;;;5042791;28;20025;-60
2021/08/24 10:30:39;;;;;;;1.30;1.00;;;23.80;54.20;;;;;;5045309;28;20053;-60
2021/08/24 10:33:05;;;;;;;1.58;1.10;;;23.80;54.30;;;;;;5049872;28;20020;-62
2021/08/24 10:35:35;;;;;;;2.35;1.17;;;23.80;54.20;;;;;;5053090;28;20066;-59
2021/08/24 10:38:02;;;;;;;1.17;0.90;;;23.80;54.20;;;;;;5043186;28;20036;-61
2021/08/24 10:40:42;;;;;;;1.17;0.95;;;23.80;54.20;;;;;;5038183;28;20045;-61
2021/08/24 10:43:10;;;;;;;1.35;1.10;;;23.80;54.70;;;;;;5035711;28;20041;-61
2021/08/24 10:45:39;;;;;;;1.23;0.98;;;23.80;54.20;;;;;;5045110;28;20052;-60
2021/08/24 10:48:12;;;;;;;1.45;1.02;;;23.80;54.20;;;;;;5045655;28;20036;-60
2021/08/24 10:50:55;;;;;;;1.73;1.30;;;23.80;54.20;;;;;;5047453;28;20087;-60
2021/08/24 10:53:56;;;;;;;1.45;1.00;;;23.80;54.20;;;;;;5040187;28;20029;-60
2021/08/24 10:56:33;;;;;;;2.00;1.30;;;23.80;54.20;;;;;;5038645;28;20482;-60
2021/08/24 10:59:05;;;;;;;1.75;1.13;;;23.80;54.20;;;;;;5045798;28;20033;-60
2021/08/24 11:01:54;;;;;;;1.33;1.00;;;23.70;54.20;;;;;;5045875;28;20029;-60
2021/08/24 11:04:45;;;;;;;1.38;0.90;;;23.80;54.20;;;;;;5047653;28;20107;-60
2021/08/24 11:07:31;;;;;;;2.33;1.23;;;23.80;54.20;;;;;;5045142;28;20132;-61
2021/08/24 11:10:25;;;;;;;1.77;1.05;;;23.80;54.70;;;;;;5042237;28;20417;-58
2021/08/24 11:13:09;;;;;;;1.77;1.00;;;23.80;54.20;;;;;;5041039;28;20048;-59
2021/08/24 11:15:37;;;;;;;1.15;0.85;;;23.80;54.20;;;;;;5036884;28;20029;-60
2021/08/24 11:18:45;;;;;;;2.05;1.10;;;23.80;54.20;;;;;;5029380;28;20188;-60
2021/08/24 11:21:30;;;;;;;1.35;1.00;;;23.80;54.20;;;;;;5042652;28;20048;-59
2021/08/24 11:24:17;;;;;;;1.67;1.20;;;23.80;54.20;;;;;;5043899;28;20048;-61
2021/08/24 11:26:57;;;;;;;1.20;0.93;;;23.80;54.20;;;;;;5041560;28;20064;-61
2021/08/24 11:29:48;;;;;;;1.30;1.00;;;23.70;54.10;;;;;;5038547;28;20052;-61
2021/08/24 11:32:29;;;;;;;1.88;1.17;;;23.80;54.20;;;;;;5043074;28;20442;-61
2021/08/24 11:35:16;;;;;;;1.88;1.10;;;23.80;54.10;;;;;;5038201;28;20563;-61
2021/08/24 11:37:44;;;;;;;1.63;1.20;;;23.80;54.10;;;;;;5047887;28;20029;-61
2021/08/24 11:40:49;;;;;;;2.45;1.20;;;23.80;54.10;;;;;;5045469;28;20056;-59
2021/08/24 11:43:41;;;;;;;1.80;1.20;;;23.80;54.10;;;;;;5035011;28;20392;-62
2021/08/24 11:46:14;;;;;;;2.17;1.20;;;23.70;54.10;;;;;;5046613;28;20188;-59
2021/08/24 11:48:46;;;;;;;1.65;1.10;;;23.70;54.10;;;;;;5045345;28;20025;-62
2021/08/24 11:51:27;;;;;;;1.40;1.10;;;23.70;54.10;;;;;;5041927;28;20055;-57
2021/08/24 11:54:02;;;;;;;1.48;1.00;;;23.70;54.20;;;;;;5042339;28;20067;-61
2021/08/24 11:56:43;;;;;;;1.73;1.00;;;23.80;54.20;;;;;;5047704;28;20095;-61
2021/08/24 11:59:40;;;;;;;1.38;1.00;;;23.70;54.20;;;;;;5047223;28;20033;-59
2021/08/24 12:02:16;;;;;;;1.35;0.90;;;23.70;54.20;;;;;;5045586;28;20135;-60
2021/08/24 12:04:45;;;;;;;2.13;1.10;;;23.70;54.20;;;;;;5045345;28;20048;-59
2021/08/24 12:07:35;;;;;;;2.33;1.30;;;23.70;54.20;;;;;;5042700;28;20025;-60
2021/08/24 12:10:15;;;;;;;1.65;1.00;;;23.80;54.20;;;;;;5036776;28;20090;-61
2021/08/24 12:12:51;;;;;;;2.10;1.20;;;23.80;54.20;;;;;;5043538;28;20094;-58
2021/08/24 12:15:44;;;;;;;1.48;1.02;;;23.80;54.20;;;;;;5037286;28;20021;-62
2021/08/24 12:18:17;;;;;;;1.85;1.10;;;23.80;54.20;;;;;;5047890;28;20029;-60
2021/08/24 12:20:49;;;;;;;2.40;1.33;;;23.80;54.20;;;;;;5041426;28;20029;-60
2021/08/24 12:23:32;;;;;;;1.40;1.00;;;23.80;54.20;;;;;;5044558;28;20032;-62
2021/08/24 12:25:58;;;;;;;1.80;1.00;;;23.80;54.20;;;;;;5054275;28;20112;-60
2021/08/24 12:28:23;;;;;;;1.70;1.10;;;23.80;54.30;;;;;;5044473;28;20032;-60
2021/08/24 12:30:58;;;;;;;1.70;1.05;;;23.70;54.20;;;;;;5047151;28;20048;-58
2021/08/24 12:33:40;;;;;;;3.20;1.20;;;23.70;54.20;;;;;;5047255;28;20100;-61
2021/08/24 12:36:21;;;;;;;1.58;0.98;;;23.70;54.20;;;;;;5030019;28;20021;-60
2021/08/24 12:38:56;;;;;;;2.05;1.20;;;23.70;54.30;;;;;;5034707;28;20052;-60
2021/08/24 12:41:34;;;;;;;1.70;1.10;;;23.80;54.30;;;;;;5041307;28;20035;-58
2021/08/24 12:44:24;;;;;;;2.00;1.38;;;23.80;54.40;;;;;;5043633;28;20056;-62
2021/08/24 12:47:11;;;;;;;1.75;1.20;;;23.80;54.40;;;;;;5042830;28;20056;-63
2021/08/24 12:49:37;;;;;;;2.53;1.20;;;23.80;54.40;;;;;;5026041;28;20040;-59
2021/08/24 12:52:14;;;;;;;2.05;1.40;;;23.80;54.40;;;;;;5040357;28;20025;-60
2021/08/24 12:54:46;;;;;;;1.92;1.10;;;23.80;54.50;;;;;;5046727;28;20045;-60
2021/08/24 12:57:22;;;;;;;2.78;1.38;;;23.80;54.50;;;;;;5035307;28;20127;-60
2021/08/24 12:59:50;;;;;;;2.50;1.35;;;23.80;54.50;;;;;;5037954;28;20075;-60
2021/08/24 13:02:24;;;;;;;2.30;1.30;;;23.70;54.40;;;;;;5035370;28;20154;-60
2021/08/24 13:04:55;;;;;;;2.33;1.30;;;23.80;54.50;;;;;;5046090;28;20033;-60
2021/08/24 13:07:33;;;;;;;2.42;1.40;;;23.80;54.50;;;;;;5045696;28;20108;-60
2021/08/24 13:10:17;;;;;;;2.10;1.35;;;23.80;54.50;;;;;;5036639;28;20056;-56
2021/08/24 13:12:44;;;;;;;2.47;1.30;;;23.80;54.50;;;;;;5037166;28;20048;-60